sensor_id;sensor_type;location;lat;lon;timestamp;pressure;altitude;pressure_sealevel;temperature;humidity
32638;BME280;19045;52.268;10.506;2023-03-29T00:01:11;100936.91;;;4.85;66.83
32638;BME280;19045;52.268;10.506;2023-03-29T00:03:37;100942.84;;;4.87;67.08
32638;BME280;19045;52.268;10.506;2023-03-29T00:06:06;100943.47;;;4.96;66.55
32638;BME280;19045;52.268;10.506;2023-03-29T00:08:34;100937.13;;;4.90;66.57
32638;BME280;19045;52.268;10.506;2023-03-29T00:11:02;100939.38;;;4.87;66.63
32638;BME280;19045;52.268;10.506;2023-03-29T00:13:30;100930.59;;;4.86;67.26
32638;BME280;19045;52.268;10.506;2023-03-29T00:15:57;100926.88;;;4.94;66.92
32638;BME280;19045;52.268;10.506;2023-03-29T00:18:24;100927.69;;;4.94;67.15
32638;BME280;19045;52.268;10.506;2023-03-29T00:20:53;100934.06;;;4.93;66.93
32638;BME280;19045;52.268;10.506;2023-03-29T00:23:20;100924.03;;;4.82;67.53
32638;BME280;19045;52.268;10.506;2023-03-29T00:25:49;100926.09;;;4.87;67.09
32638;BME280;19045;52.268;10.506;2023-03-29T00:28:15;100917.47;;;4.85;66.96
32638;BME280;19045;52.268;10.506;2023-03-29T00:30:44;100920.78;;;4.80;66.89
32638;BME280;19045;52.268;10.506;2023-03-29T00:33:10;100913.81;;;4.79;67.13
32638;BME280;19045;52.268;10.506;2023-03-29T00:35:38;100914.81;;;4.85;66.30
32638;BME280;19045;52.268;10.506;2023-03-29T00:38:05;100913.97;;;4.84;66.27
32638;BME280;19045;52.268;10.506;2023-03-29T00:40:32;100908.44;;;4.92;65.99
32638;BME280;19045;52.268;10.506;2023-03-29T00:42:59;100899.88;;;4.90;66.02
32638;BME280;19045;52.268;10.506;2023-03-29T00:45:28;100911.94;;;4.93;65.77
32638;BME280;19045;52.268;10.506;2023-03-29T00:47:58;100901.06;;;4.94;65.61
32638;BME280;19045;52.268;10.506;2023-03-29T00:50:28;100899.00;;;5.03;65.07
32638;BME280;19045;52.268;10.506;2023-03-29T00:52:59;100892.47;;;4.99;65.41
32638;BME280;19045;52.268;10.506;2023-03-29T00:55:29;100890.22;;;4.96;65.66
32638;BME280;19045;52.268;10.506;2023-03-29T00:57:57;100892.06;;;4.95;65.73
32638;BME280;19045;52.268;10.506;2023-03-29T01:00:28;100888.59;;;4.88;66.20
32638;BME280;19045;52.268;10.506;2023-03-29T01:02:58;100888.00;;;4.86;65.91
32638;BME280;19045;52.268;10.506;2023-03-29T01:05:29;100892.03;;;5.02;65.25
32638;BME280;19045;52.268;10.506;2023-03-29T01:08:00;100886.72;;;5.02;64.60
32638;BME280;19045;52.268;10.506;2023-03-29T01:10:33;100884.47;;;4.99;64.28
32638;BME280;19045;52.268;10.506;2023-03-29T01:13:04;100876.50;;;4.99;63.56
32638;BME280;19045;52.268;10.506;2023-03-29T01:15:32;100870.34;;;4.98;63.60
32638;BME280;19045;52.268;10.506;2023-03-29T01:18:00;100859.91;;;4.97;63.11
32638;BME280;19045;52.268;10.506;2023-03-29T01:20:38;100858.28;;;4.96;63.66
32638;BME280;19045;52.268;10.506;2023-03-29T01:23:18;100856.59;;;5.01;62.67
32638;BME280;19045;52.268;10.506;2023-03-29T01:25:57;100850.06;;;4.97;62.67
32638;BME280;19045;52.268;10.506;2023-03-29T01:28:30;100854.56;;;5.03;62.06
32638;BME280;19045;52.268;10.506;2023-03-29T01:31:01;100853.34;;;4.99;61.78
32638;BME280;19045;52.268;10.506;2023-03-29T01:33:35;100851.28;;;5.01;61.14
32638;BME280;19045;52.268;10.506;2023-03-29T01:36:07;100843.28;;;5.08;60.32
32638;BME280;19045;52.268;10.506;2023-03-29T01:38:39;100841.19;;;5.23;58.75
32638;BME280;19045;52.268;10.506;2023-03-29T01:41:07;100830.94;;;5.20;58.60
32638;BME280;19045;52.268;10.506;2023-03-29T01:43:40;100830.69;;;5.28;58.35
32638;BME280;19045;52.268;10.506;2023-03-29T01:46:10;100825.94;;;5.37;57.52
32638;BME280;19045;52.268;10.506;2023-03-29T01:48:44;100828.63;;;5.37;57.32
32638;BME280;19045;52.268;10.506;2023-03-29T01:51:15;100825.34;;;5.35;57.39
32638;BME280;19045;52.268;10.506;2023-03-29T01:53:46;100811.16;;;5.41;57.45
32638;BME280;19045;52.268;10.506;2023-03-29T01:56:18;100819.22;;;5.28;57.96
32638;BME280;19045;52.268;10.506;2023-03-29T01:58:51;100817.84;;;5.18;58.34
32638;BME280;19045;52.268;10.506;2023-03-29T02:01:22;100819.50;;;5.13;58.89
32638;BME280;19045;52.268;10.506;2023-03-29T02:03:54;100811.75;;;5.05;59.60
32638;BME280;19045;52.268;10.506;2023-03-29T02:06:24;100813.28;;;5.26;59.06
32638;BME280;19045;52.268;10.506;2023-03-29T02:08:53;100821.94;;;5.14;59.72
32638;BME280;19045;52.268;10.506;2023-03-29T02:11:20;100812.13;;;5.15;60.02
32638;BME280;19045;52.268;10.506;2023-03-29T02:13:49;100814.16;;;5.19;60.26
32638;BME280;19045;52.268;10.506;2023-03-29T02:16:16;100815.03;;;5.07;60.95
32638;BME280;19045;52.268;10.506;2023-03-29T02:18:45;100815.00;;;5.13;60.82
32638;BME280;19045;52.268;10.506;2023-03-29T02:21:20;100813.09;;;5.20;60.67
32638;BME280;19045;52.268;10.506;2023-03-29T02:23:50;100813.75;;;5.16;61.12
32638;BME280;19045;52.268;10.506;2023-03-29T02:26:19;100807.00;;;5.13;61.56
32638;BME280;19045;52.268;10.506;2023-03-29T02:28:46;100804.34;;;5.13;62.07
32638;BME280;19045;52.268;10.506;2023-03-29T02:31:19;100789.81;;;5.09;62.37
32638;BME280;19045;52.268;10.506;2023-03-29T02:33:53;100799.44;;;5.10;62.70
32638;BME280;19045;52.268;10.506;2023-03-29T02:36:22;100794.91;;;5.11;63.19
32638;BME280;19045;52.268;10.506;2023-03-29T02:38:52;100793.75;;;5.07;63.44
32638;BME280;19045;52.268;10.506;2023-03-29T02:41:20;100790.03;;;5.08;63.45
32638;BME280;19045;52.268;10.506;2023-03-29T02:43:48;100797.97;;;5.14;63.90
32638;BME280;19045;52.268;10.506;2023-03-29T02:46:17;100797.16;;;5.14;64.44
32638;BME280;19045;52.268;10.506;2023-03-29T02:48:47;100793.91;;;5.12;65.24
32638;BME280;19045;52.268;10.506;2023-03-29T02:51:18;100788.56;;;5.12;66.16
32638;BME280;19045;52.268;10.506;2023-03-29T02:53:49;100780.38;;;5.13;66.58
32638;BME280;19045;52.268;10.506;2023-03-29T02:56:18;100773.63;;;5.11;67.04
32638;BME280;19045;52.268;10.506;2023-03-29T02:58:44;100769.13;;;5.11;68.12
32638;BME280;19045;52.268;10.506;2023-03-29T03:01:11;100774.44;;;5.11;68.87
32638;BME280;19045;52.268;10.506;2023-03-29T03:03:40;100774.28;;;5.06;69.58
32638;BME280;19045;52.268;10.506;2023-03-29T03:06:07;100765.47;;;5.06;70.13
32638;BME280;19045;52.268;10.506;2023-03-29T03:08:33;100763.81;;;5.05;70.72
32638;BME280;19045;52.268;10.506;2023-03-29T03:11:00;100760.53;;;5.09;70.86
32638;BME280;19045;52.268;10.506;2023-03-29T03:13:27;100760.97;;;5.06;71.16
32638;BME280;19045;52.268;10.506;2023-03-29T03:15:53;100757.28;;;5.01;72.15
32638;BME280;19045;52.268;10.506;2023-03-29T03:18:20;100754.03;;;4.99;72.63
32638;BME280;19045;52.268;10.506;2023-03-29T03:20:58;100755.88;;;4.98;73.67
32638;BME280;19045;52.268;10.506;2023-03-29T03:23:25;100750.34;;;5.00;74.37
32638;BME280;19045;52.268;10.506;2023-03-29T03:25:52;100747.06;;;4.98;75.21
32638;BME280;19045;52.268;10.506;2023-03-29T03:28:20;100753.03;;;4.93;75.85
32638;BME280;19045;52.268;10.506;2023-03-29T03:30:48;100744.66;;;4.90;76.80
32638;BME280;19045;52.268;10.506;2023-03-29T03:33:15;100747.91;;;4.92;77.50
32638;BME280;19045;52.268;10.506;2023-03-29T03:35:43;100745.69;;;4.89;77.95
32638;BME280;19045;52.268;10.506;2023-03-29T03:38:11;100749.75;;;4.91;78.39
32638;BME280;19045;52.268;10.506;2023-03-29T03:40:38;100744.03;;;4.88;79.62
32638;BME280;19045;52.268;10.506;2023-03-29T03:43:05;100747.56;;;4.82;80.40
32638;BME280;19045;52.268;10.506;2023-03-29T03:45:32;100740.38;;;4.82;80.63
32638;BME280;19045;52.268;10.506;2023-03-29T03:47:59;100761.88;;;4.81;81.69
32638;BME280;19045;52.268;10.506;2023-03-29T03:50:25;100742.25;;;4.75;82.56
32638;BME280;19045;52.268;10.506;2023-03-29T03:52:52;100735.72;;;4.71;83.33
32638;BME280;19045;52.268;10.506;2023-03-29T03:55:20;100733.09;;;4.64;83.88
32638;BME280;19045;52.268;10.506;2023-03-29T03:57:48;100732.06;;;4.65;84.15
32638;BME280;19045;52.268;10.506;2023-03-29T04:00:16;100721.63;;;4.64;84.60
32638;BME280;19045;52.268;10.506;2023-03-29T04:02:47;100727.16;;;4.62;85.06
32638;BME280;19045;52.268;10.506;2023-03-29T04:05:14;100726.56;;;4.60;85.55
32638;BME280;19045;52.268;10.506;2023-03-29T04:07:41;100722.88;;;4.61;86.23
32638;BME280;19045;52.268;10.506;2023-03-29T04:10:08;100725.75;;;4.60;86.67
32638;BME280;19045;52.268;10.506;2023-03-29T04:12:37;100723.53;;;4.57;86.93
32638;BME280;19045;52.268;10.506;2023-03-29T04:15:05;100724.34;;;4.51;88.02
32638;BME280;19045;52.268;10.506;2023-03-29T04:17:33;100721.91;;;4.49;88.82
32638;BME280;19045;52.268;10.506;2023-03-29T04:20:00;100711.66;;;4.53;89.02
32638;BME280;19045;52.268;10.506;2023-03-29T04:22:31;100715.75;;;4.49;89.63
32638;BME280;19045;52.268;10.506;2023-03-29T04:24:58;100701.03;;;4.53;89.76
32638;BME280;19045;52.268;10.506;2023-03-29T04:27:24;100700.03;;;4.47;90.51
32638;BME280;19045;52.268;10.506;2023-03-29T04:29:52;100695.31;;;4.43;90.84
32638;BME280;19045;52.268;10.506;2023-03-29T04:32:19;100696.97;;;4.44;91.24
32638;BME280;19045;52.268;10.506;2023-03-29T04:34:45;100690.41;;;4.46;90.84
32638;BME280;19045;52.268;10.506;2023-03-29T04:37:12;100684.25;;;4.46;91.32
32638;BME280;19045;52.268;10.506;2023-03-29T04:39:40;100694.47;;;4.49;91.65
32638;BME280;19045;52.268;10.506;2023-03-29T04:42:09;100694.47;;;4.49;91.75
32638;BME280;19045;52.268;10.506;2023-03-29T04:44:36;100688.72;;;4.52;91.54
32638;BME280;19045;52.268;10.506;2023-03-29T04:47:07;100682.44;;;4.46;91.99
32638;BME280;19045;52.268;10.506;2023-03-29T04:49:35;100682.44;;;4.46;92.32
32638;BME280;19045;52.268;10.506;2023-03-29T04:52:01;100677.31;;;4.45;92.30
32638;BME280;19045;52.268;10.506;2023-03-29T04:54:30;100686.34;;;4.44;92.64
32638;BME280;19045;52.268;10.506;2023-03-29T04:56:56;100676.47;;;4.44;92.83
32638;BME280;19045;52.268;10.506;2023-03-29T04:59:23;100674.06;;;4.43;93.22
32638;BME280;19045;52.268;10.506;2023-03-29T05:01:49;100681.78;;;4.51;93.21
32638;BME280;19045;52.268;10.506;2023-03-29T05:04:17;100683.84;;;4.49;93.29
32638;BME280;19045;52.268;10.506;2023-03-29T05:06:44;100673.00;;;4.50;93.13
32638;BME280;19045;52.268;10.506;2023-03-29T05:09:11;100680.97;;;4.50;93.45
32638;BME280;19045;52.268;10.506;2023-03-29T05:11:38;100672.97;;;4.57;93.16
32638;BME280;19045;52.268;10.506;2023-03-29T05:14:04;100682.38;;;4.59;93.03
32638;BME280;19045;52.268;10.506;2023-03-29T05:16:33;100678.50;;;4.55;93.10
32638;BME280;19045;52.268;10.506;2023-03-29T05:19:00;100673.19;;;4.55;92.86
32638;BME280;19045;52.268;10.506;2023-03-29T05:21:28;100686.06;;;4.52;93.23
32638;BME280;19045;52.268;10.506;2023-03-29T05:23:55;100678.91;;;4.52;93.42
32638;BME280;19045;52.268;10.506;2023-03-29T05:26:22;100677.50;;;4.50;93.22
32638;BME280;19045;52.268;10.506;2023-03-29T05:28:49;100679.13;;;4.44;93.44
32638;BME280;19045;52.268;10.506;2023-03-29T05:31:16;100673.44;;;4.47;93.45
32638;BME280;19045;52.268;10.506;2023-03-29T05:33:42;100675.28;;;4.47;93.48
32638;BME280;19045;52.268;10.506;2023-03-29T05:36:11;100674.63;;;4.51;93.78
32638;BME280;19045;52.268;10.506;2023-03-29T05:38:40;100668.25;;;4.59;93.16
32638;BME280;19045;52.268;10.506;2023-03-29T05:41:09;100675.44;;;4.52;92.93
32638;BME280;19045;52.268;10.506;2023-03-29T05:43:36;100666.59;;;4.58;93.21
32638;BME280;19045;52.268;10.506;2023-03-29T05:46:03;100661.28;;;4.58;93.05
32638;BME280;19045;52.268;10.506;2023-03-29T05:48:30;100658.81;;;4.63;92.40
32638;BME280;19045;52.268;10.506;2023-03-29T05:50:57;100666.19;;;4.61;92.57
32638;BME280;19045;52.268;10.506;2023-03-29T05:53:25;100662.31;;;4.63;92.56
32638;BME280;19045;52.268;10.506;2023-03-29T05:55:55;100665.34;;;4.67;92.11
32638;BME280;19045;52.268;10.506;2023-03-29T05:58:22;100661.44;;;4.69;92.20
32638;BME280;19045;52.268;10.506;2023-03-29T06:00:50;100664.94;;;4.70;92.10
32638;BME280;19045;52.268;10.506;2023-03-29T06:03:19;100657.09;;;4.75;91.45
32638;BME280;19045;52.268;10.506;2023-03-29T06:05:54;100647.28;;;4.76;91.42
32638;BME280;19045;52.268;10.506;2023-03-29T06:08:21;100646.66;;;4.80;91.53
32638;BME280;19045;52.268;10.506;2023-03-29T06:10:47;100649.50;;;4.79;91.84
32638;BME280;19045;52.268;10.506;2023-03-29T06:13:15;100651.31;;;4.85;91.41
32638;BME280;19045;52.268;10.506;2023-03-29T06:15:42;100647.78;;;4.91;90.97
32638;BME280;19045;52.268;10.506;2023-03-29T06:18:09;100657.38;;;4.98;90.92
32638;BME280;19045;52.268;10.506;2023-03-29T06:20:35;100664.69;;;5.09;90.41
32638;BME280;19045;52.268;10.506;2023-03-29T06:23:02;100661.75;;;5.17;90.30
32638;BME280;19045;52.268;10.506;2023-03-29T06:25:29;100656.59;;;5.22;90.15
32638;BME280;19045;52.268;10.506;2023-03-29T06:27:56;100663.94;;;5.27;90.04
32638;BME280;19045;52.268;10.506;2023-03-29T06:30:24;100650.34;;;5.35;89.64
32638;BME280;19045;52.268;10.506;2023-03-29T06:32:50;100652.53;;;5.45;89.46
32638;BME280;19045;52.268;10.506;2023-03-29T06:35:17;100652.66;;;5.56;89.00
32638;BME280;19045;52.268;10.506;2023-03-29T06:37:43;100654.03;;;5.59;88.38
32638;BME280;19045;52.268;10.506;2023-03-29T06:40:14;100654.63;;;5.61;88.64
32638;BME280;19045;52.268;10.506;2023-03-29T06:42:43;100656.84;;;5.64;88.07
32638;BME280;19045;52.268;10.506;2023-03-29T06:45:10;100653.75;;;5.67;87.78
32638;BME280;19045;52.268;10.506;2023-03-29T06:47:38;100661.84;;;5.79;87.64
32638;BME280;19045;52.268;10.506;2023-03-29T06:50:06;100656.09;;;5.82;86.73
32638;BME280;19045;52.268;10.506;2023-03-29T06:52:34;100653.78;;;5.85;86.59
32638;BME280;19045;52.268;10.506;2023-03-29T06:55:01;100658.13;;;5.86;87.03
32638;BME280;19045;52.268;10.506;2023-03-29T06:57:31;100650.84;;;5.93;86.86
32638;BME280;19045;52.268;10.506;2023-03-29T06:59:58;100655.91;;;6.01;86.23
32638;BME280;19045;52.268;10.506;2023-03-29T07:02:24;100652.13;;;5.91;85.93
32638;BME280;19045;52.268;10.506;2023-03-29T07:04:52;100647.03;;;5.89;86.54
32638;BME280;19045;52.268;10.506;2023-03-29T07:07:20;100655.72;;;6.03;86.15
32638;BME280;19045;52.268;10.506;2023-03-29T07:09:46;100654.66;;;6.22;85.28
32638;BME280;19045;52.268;10.506;2023-03-29T07:12:19;100657.09;;;6.42;84.56
32638;BME280;19045;52.268;10.506;2023-03-29T07:14:46;100658.56;;;6.56;84.13
32638;BME280;19045;52.268;10.506;2023-03-29T07:17:12;100648.56;;;6.51;82.99
32638;BME280;19045;52.268;10.506;2023-03-29T07:19:40;100664.34;;;6.53;83.26
32638;BME280;19045;52.268;10.506;2023-03-29T07:22:09;100650.19;;;6.34;83.30
32638;BME280;19045;52.268;10.506;2023-03-29T07:24:35;100658.38;;;6.39;83.38
32638;BME280;19045;52.268;10.506;2023-03-29T07:27:02;100655.56;;;6.64;82.26
32638;BME280;19045;52.268;10.506;2023-03-29T07:29:28;100653.84;;;6.69;81.59
32638;BME280;19045;52.268;10.506;2023-03-29T07:31:55;100633.56;;;6.80;80.85
32638;BME280;19045;52.268;10.506;2023-03-29T07:34:22;100649.66;;;7.03;80.34
32638;BME280;19045;52.268;10.506;2023-03-29T07:36:48;100634.28;;;7.40;77.78
32638;BME280;19045;52.268;10.506;2023-03-29T07:39:17;100640.13;;;7.95;74.59
32638;BME280;19045;52.268;10.506;2023-03-29T07:41:43;100638.63;;;7.64;75.55
32638;BME280;19045;52.268;10.506;2023-03-29T07:44:10;100638.63;;;7.64;75.91
32638;BME280;19045;52.268;10.506;2023-03-29T07:46:36;100645.25;;;7.85;73.93
32638;BME280;19045;52.268;10.506;2023-03-29T07:49:03;100637.00;;;7.75;74.90
32638;BME280;19045;52.268;10.506;2023-03-29T07:51:31;100644.78;;;7.88;74.32
32638;BME280;19045;52.268;10.506;2023-03-29T07:53:58;100639.31;;;7.71;74.75
32638;BME280;19045;52.268;10.506;2023-03-29T07:56:26;100644.53;;;7.32;76.08
32638;BME280;19045;52.268;10.506;2023-03-29T07:58:53;100638.00;;;7.27;76.43
32638;BME280;19045;52.268;10.506;2023-03-29T08:01:19;100636.47;;;7.20;77.61
32638;BME280;19045;52.268;10.506;2023-03-29T08:03:46;100618.75;;;7.49;75.67
32638;BME280;19045;52.268;10.506;2023-03-29T08:06:12;100639.66;;;7.52;75.87
32638;BME280;19045;52.268;10.506;2023-03-29T08:08:40;100631.88;;;7.50;76.50
32638;BME280;19045;52.268;10.506;2023-03-29T08:11:06;100629.75;;;7.41;76.61
32638;BME280;19045;52.268;10.506;2023-03-29T08:13:35;100628.63;;;7.48;75.92
32638;BME280;19045;52.268;10.506;2023-03-29T08:16:02;100635.22;;;7.46;75.87
32638;BME280;19045;52.268;10.506;2023-03-29T08:18:30;100634.06;;;7.53;76.47
32638;BME280;19045;52.268;10.506;2023-03-29T08:20:56;100640.47;;;7.52;75.87
32638;BME280;19045;52.268;10.506;2023-03-29T08:23:23;100636.50;;;7.43;76.42
32638;BME280;19045;52.268;10.506;2023-03-29T08:25:50;100636.03;;;7.35;76.54
32638;BME280;19045;52.268;10.506;2023-03-29T08:28:16;100629.66;;;7.36;77.35
32638;BME280;19045;52.268;10.506;2023-03-29T08:30:44;100630.56;;;7.29;77.21
32638;BME280;19045;52.268;10.506;2023-03-29T08:33:12;100636.81;;;7.12;78.15
32638;BME280;19045;52.268;10.506;2023-03-29T08:35:38;100633.69;;;7.26;77.48
32638;BME280;19045;52.268;10.506;2023-03-29T08:38:05;100639.03;;;7.26;77.40
32638;BME280;19045;52.268;10.506;2023-03-29T08:40:34;100629.84;;;7.11;77.56
32638;BME280;19045;52.268;10.506;2023-03-29T08:43:25;100620.31;;;7.15;77.89
32638;BME280;19045;52.268;10.506;2023-03-29T08:46:04;100631.16;;;7.32;77.82
32638;BME280;19045;52.268;10.506;2023-03-29T08:48:38;100622.47;;;7.48;77.22
32638;BME280;19045;52.268;10.506;2023-03-29T08:51:13;100629.75;;;7.41;77.69
32638;BME280;19045;52.268;10.506;2023-03-29T08:53:45;100633.22;;;7.29;77.42
32638;BME280;19045;52.268;10.506;2023-03-29T08:56:19;100634.50;;;7.27;78.43
32638;BME280;19045;52.268;10.506;2023-03-29T08:58:50;100631.06;;;7.38;78.10
32638;BME280;19045;52.268;10.506;2023-03-29T09:01:19;100637.56;;;7.54;77.49
32638;BME280;19045;52.268;10.506;2023-03-29T09:03:48;100642.91;;;7.77;76.65
32638;BME280;19045;52.268;10.506;2023-03-29T09:06:19;100642.19;;;7.93;76.63
32638;BME280;19045;52.268;10.506;2023-03-29T09:08:48;100642.75;;;8.07;75.28
32638;BME280;19045;52.268;10.506;2023-03-29T09:11:25;100638.78;;;8.09;74.36
32638;BME280;19045;52.268;10.506;2023-03-29T09:14:02;100636.94;;;8.10;75.65
32638;BME280;19045;52.268;10.506;2023-03-29T09:16:36;100635.28;;;8.20;74.42
32638;BME280;19045;52.268;10.506;2023-03-29T09:19:15;100631.00;;;8.31;74.50
32638;BME280;19045;52.268;10.506;2023-03-29T09:21:49;100634.44;;;8.43;74.52
32638;BME280;19045;52.268;10.506;2023-03-29T09:24:36;100639.91;;;8.48;74.42
32638;BME280;19045;52.268;10.506;2023-03-29T09:27:07;100638.31;;;8.24;74.05
32638;BME280;19045;52.268;10.506;2023-03-29T09:29:52;100631.03;;;7.96;75.18
32638;BME280;19045;52.268;10.506;2023-03-29T09:32:29;100632.50;;;8.15;74.32
32638;BME280;19045;52.268;10.506;2023-03-29T09:35:03;100630.63;;;8.39;74.29
32638;BME280;19045;52.268;10.506;2023-03-29T09:37:36;100616.41;;;8.39;72.74
32638;BME280;19045;52.268;10.506;2023-03-29T09:40:09;100620.69;;;8.51;73.21
32638;BME280;19045;52.268;10.506;2023-03-29T09:42:37;100627.50;;;8.59;72.44
32638;BME280;19045;52.268;10.506;2023-03-29T09:45:06;100613.94;;;8.77;71.73
32638;BME280;19045;52.268;10.506;2023-03-29T09:47:37;100621.31;;;8.70;71.82
32638;BME280;19045;52.268;10.506;2023-03-29T09:50:09;100607.91;;;8.70;72.05
32638;BME280;19045;52.268;10.506;2023-03-29T09:52:37;100602.47;;;8.65;70.14
32638;BME280;19045;52.268;10.506;2023-03-29T09:55:04;100612.53;;;8.58;71.33
32638;BME280;19045;52.268;10.506;2023-03-29T09:57:32;100612.88;;;8.61;71.36
32638;BME280;19045;52.268;10.506;2023-03-29T10:00:00;100610.22;;;8.78;70.57
32638;BME280;19045;52.268;10.506;2023-03-29T10:02:30;100607.44;;;8.73;71.20
32638;BME280;19045;52.268;10.506;2023-03-29T10:05:03;100608.81;;;8.75;71.17
32638;BME280;19045;52.268;10.506;2023-03-29T10:07:38;100609.25;;;8.56;72.73
32638;BME280;19045;52.268;10.506;2023-03-29T10:10:09;100594.34;;;8.60;73.22
32638;BME280;19045;52.268;10.506;2023-03-29T10:12:36;100600.47;;;8.44;73.27
32638;BME280;19045;52.268;10.506;2023-03-29T10:15:04;100595.72;;;8.34;74.16
32638;BME280;19045;52.268;10.506;2023-03-29T10:17:37;100599.59;;;8.15;75.11
32638;BME280;19045;52.268;10.506;2023-03-29T10:20:12;100603.66;;;8.17;75.07
32638;BME280;19045;52.268;10.506;2023-03-29T10:22:47;100605.88;;;8.20;75.14
32638;BME280;19045;52.268;10.506;2023-03-29T10:25:16;100599.56;;;8.38;74.36
32638;BME280;19045;52.268;10.506;2023-03-29T10:27:45;100592.78;;;8.47;74.39
32638;BME280;19045;52.268;10.506;2023-03-29T10:30:19;100588.66;;;8.56;73.99
32638;BME280;19045;52.268;10.506;2023-03-29T10:32:51;100580.63;;;8.56;74.17
32638;BME280;19045;52.268;10.506;2023-03-29T10:35:27;100582.75;;;8.54;74.99
32638;BME280;19045;52.268;10.506;2023-03-29T10:37:55;100584.16;;;8.73;74.59
32638;BME280;19045;52.268;10.506;2023-03-29T10:40:26;100585.72;;;9.03;72.97
32638;BME280;19045;52.268;10.506;2023-03-29T10:42:58;100581.69;;;9.17;71.65
32638;BME280;19045;52.268;10.506;2023-03-29T10:45:27;100576.47;;;9.27;70.87
32638;BME280;19045;52.268;10.506;2023-03-29T10:47:54;100584.84;;;9.14;72.15
32638;BME280;19045;52.268;10.506;2023-03-29T10:50:23;100586.38;;;9.26;71.83
32638;BME280;19045;52.268;10.506;2023-03-29T10:52:51;100585.16;;;9.34;71.61
32638;BME280;19045;52.268;10.506;2023-03-29T10:55:18;100586.19;;;9.50;71.38
32638;BME280;19045;52.268;10.506;2023-03-29T10:57:52;100581.72;;;9.39;72.26
32638;BME280;19045;52.268;10.506;2023-03-29T11:00:26;100587.84;;;9.34;72.84
32638;BME280;19045;52.268;10.506;2023-03-29T11:03:06;100581.34;;;9.13;74.05
32638;BME280;19045;52.268;10.506;2023-03-29T11:05:44;100581.09;;;9.15;74.06
32638;BME280;19045;52.268;10.506;2023-03-29T11:08:35;100587.19;;;9.44;73.52
32638;BME280;19045;52.268;10.506;2023-03-29T11:11:13;100578.81;;;9.78;72.32
32638;BME280;19045;52.268;10.506;2023-03-29T11:13:49;100566.84;;;10.78;68.72
32638;BME280;19045;52.268;10.506;2023-03-29T11:16:26;100562.84;;;11.54;64.59
32638;BME280;19045;52.268;10.506;2023-03-29T11:19:14;100563.13;;;11.16;65.90
32638;BME280;19045;52.268;10.506;2023-03-29T11:21:50;100554.25;;;11.15;66.82
32638;BME280;19045;52.268;10.506;2023-03-29T11:24:38;100555.97;;;10.63;68.74
32638;BME280;19045;52.268;10.506;2023-03-29T11:27:16;100560.31;;;10.42;69.60
32638;BME280;19045;52.268;10.506;2023-03-29T11:29:56;100559.44;;;10.36;70.74
32638;BME280;19045;52.268;10.506;2023-03-29T11:32:28;100546.75;;;10.54;70.01
32638;BME280;19045;52.268;10.506;2023-03-29T11:35:05;100544.69;;;11.29;67.25
32638;BME280;19045;52.268;10.506;2023-03-29T11:37:42;100535.00;;;11.70;64.74
32638;BME280;19045;52.268;10.506;2023-03-29T11:40:25;100526.13;;;13.03;61.29
32638;BME280;19045;52.268;10.506;2023-03-29T11:42:54;100528.44;;;13.85;57.29
32638;BME280;19045;52.268;10.506;2023-03-29T11:45:26;100522.59;;;14.22;55.40
32638;BME280;19045;52.268;10.506;2023-03-29T11:47:55;100532.28;;;14.28;55.63
32638;BME280;19045;52.268;10.506;2023-03-29T11:50:28;100532.81;;;13.61;57.54
32638;BME280;19045;52.268;10.506;2023-03-29T11:52:59;100531.16;;;12.18;62.42
32638;BME280;19045;52.268;10.506;2023-03-29T11:55:30;100526.66;;;11.72;65.76
32638;BME280;19045;52.268;10.506;2023-03-29T11:58:01;100524.63;;;12.04;64.90
32638;BME280;19045;52.268;10.506;2023-03-29T12:00:35;100527.81;;;11.91;65.34
32638;BME280;19045;52.268;10.506;2023-03-29T12:03:09;100529.94;;;11.84;67.01
32638;BME280;19045;52.268;10.506;2023-03-29T12:05:41;100521.28;;;11.77;66.47
32638;BME280;19045;52.268;10.506;2023-03-29T12:08:14;100524.16;;;12.27;65.90
32638;BME280;19045;52.268;10.506;2023-03-29T12:10:47;100522.59;;;13.58;60.37
32638;BME280;19045;52.268;10.506;2023-03-29T12:13:18;100499.13;;;15.52;53.43
32638;BME280;19045;52.268;10.506;2023-03-29T12:15:51;100514.25;;;14.96;54.73
32638;BME280;19045;52.268;10.506;2023-03-29T12:18:22;100517.56;;;14.00;56.85
32638;BME280;19045;52.268;10.506;2023-03-29T12:20:55;100526.94;;;14.18;58.05
32638;BME280;19045;52.268;10.506;2023-03-29T12:23:23;100518.28;;;13.46;59.43
32638;BME280;19045;52.268;10.506;2023-03-29T12:25:56;100522.06;;;12.60;63.70
32638;BME280;19045;52.268;10.506;2023-03-29T12:28:50;100509.91;;;12.27;66.00
32638;BME280;19045;52.268;10.506;2023-03-29T12:31:25;100521.44;;;12.17;66.72
32638;BME280;19045;52.268;10.506;2023-03-29T12:34:13;100516.34;;;11.64;68.97
32638;BME280;19045;52.268;10.506;2023-03-29T12:36:52;100515.47;;;11.95;68.62
32638;BME280;19045;52.268;10.506;2023-03-29T12:39:26;100501.78;;;12.17;67.17
32638;BME280;19045;52.268;10.506;2023-03-29T12:42:04;100502.25;;;11.93;68.94
32638;BME280;19045;52.268;10.506;2023-03-29T12:44:32;100507.72;;;11.57;70.27
32638;BME280;19045;52.268;10.506;2023-03-29T12:46:59;100511.38;;;11.35;72.28
32638;BME280;19045;52.268;10.506;2023-03-29T12:49:30;100504.63;;;11.33;72.68
32638;BME280;19045;52.268;10.506;2023-03-29T12:51:59;100501.19;;;11.43;72.04
32638;BME280;19045;52.268;10.506;2023-03-29T12:54:31;100489.09;;;12.02;69.60
32638;BME280;19045;52.268;10.506;2023-03-29T12:56:59;100491.84;;;12.27;69.03
32638;BME280;19045;52.268;10.506;2023-03-29T12:59:36;100488.56;;;12.05;69.84
32638;BME280;19045;52.268;10.506;2023-03-29T13:02:24;100481.66;;;11.67;71.72